LRTC - TULCEA / DELTA DUNARII

Compiled: 11:33:20 on 21/04/2018

Latest METAR/SPECI Reports

METAR LRTC 211130Z 31005KT 250V010 CAVOK 21/04 Q1019=

Previous reports

METAR LRTC 211100Z 01007KT 340V040 CAVOK 21/04 Q1019=
METAR LRTC 211030Z 03004KT 360V130 CAVOK 21/04 Q1019=
METAR LRTC 211000Z 30007KT 230V010 CAVOK 20/05 Q1020=
METAR LRTC 210930Z 30007KT 260V340 CAVOK 20/05 Q1020=

Latest TAF report

TAF LRTC 211100Z 2112/2121 VRB04KT CAVOK BECMG 2116/2118 23010KT=

Valid WARNINGS

No valid warnings for LRTC